Hovedside
METAR-TAF:

METAR-TAF

Lufthavner :

Mosjøen, Norge

Mosjøen lufthavn

breddegrad: 65-48N, lengdegrad: 013-08E, høyde over havet: 70 m

Gjeldene værobservasjon

Denne rapporten ble laget for 12 minutter siden, klokken 04:20 UTC
Vind 2 kt fra skiftende retning
Temperatur -4°C
Luftfuktighet 86%
Trykk 1007 hPa
Sikt 10 km eller mer
Få skyer i en høyde av 4000 ft

METAR: ENMS 250420Z VRB02KT 9999 FEW040 M04/M06 Q1007 RMK WIND 412FT VRB01KT

Tid: 06:32 (04:32 UTC)


TAF: fraværende

Værobservasjoner og værvarsel for over 4000 flyplasser (METAR- og TAF-rapporter).

Tilgjengelige stasjoner er representert av de røde og gule prikkene på kartet.

Hold musepekeren over prikken for å se navnet på stasjonen.

Klikk så for å se værobservasjoner og -varsler.

For å forandre kartet kan du klikke på den grønne knappen med svart kryss for å zoome inn, på den grønne knappen med strek for å zoome ut, eller på de grønne pilene for å se tilstøtende kart.


METAR-TAF: